createdAt,value
2023-03-23T15:58:12.060Z,65.53
2023-03-23T16:00:40.866Z,67.25
2023-03-23T16:03:12.167Z,68.60
2023-03-23T16:05:39.039Z,69.42
2023-03-23T16:08:06.251Z,68.66
2023-03-23T16:10:32.680Z,69.23
2023-03-23T16:12:59.078Z,68.96
2023-03-23T16:15:25.543Z,69.66
2023-03-23T16:17:53.466Z,70.17
2023-03-23T16:20:21.839Z,69.24
2023-03-23T16:22:49.164Z,70.65
2023-03-23T16:25:16.811Z,70.95
2023-03-23T16:27:43.535Z,70.55
2023-03-23T16:30:15.089Z,69.31
2023-03-23T16:35:09.085Z,69.05
2023-03-23T16:37:35.803Z,69.91
2023-03-23T16:40:02.803Z,69.82
2023-03-23T16:42:29.250Z,70.12
2023-03-23T16:44:55.668Z,71.75
2023-03-23T16:47:22.415Z,71.52
2023-03-23T16:49:49.081Z,72.21
2023-03-23T16:52:16.970Z,72.89
2023-03-23T16:54:43.647Z,70.65
2023-03-23T16:57:10.068Z,71.70
2023-03-23T16:59:36.494Z,71.48
2023-03-23T17:02:03.010Z,71.40
2023-03-23T17:04:29.442Z,71.85
2023-03-23T17:06:56.152Z,72.05
2023-03-23T17:09:23.854Z,71.79
2023-03-23T17:11:50.267Z,72.33
2023-03-23T17:14:16.698Z,70.90
2023-03-23T17:16:43.121Z,70.17
2023-03-23T17:19:09.542Z,68.83
2023-03-23T17:21:35.908Z,70.71
2023-03-23T17:24:02.716Z,71.28
2023-03-23T17:26:30.394Z,71.44
2023-03-23T17:28:56.928Z,70.32
2023-03-23T17:31:23.672Z,70.96
2023-03-23T17:33:50.143Z,70.57
2023-03-23T17:36:16.605Z,71.32
2023-03-23T17:38:43.113Z,70.71
2023-03-23T17:41:09.517Z,71.41
2023-03-23T17:43:37.718Z,70.49
2023-03-23T17:46:04.472Z,71.04
2023-03-23T17:48:30.936Z,70.12
2023-03-23T17:50:57.314Z,72.54
2023-03-23T17:53:23.975Z,73.29
2023-03-23T17:55:50.341Z,72.98
2023-03-23T17:58:16.737Z,72.65
2023-03-23T18:00:45.200Z,72.44
2023-03-23T18:03:11.678Z,71.39
2023-03-23T18:05:38.286Z,73.13
2023-03-23T18:08:05.553Z,72.78
2023-03-23T18:10:32.139Z,72.32
2023-03-23T18:12:58.480Z,72.99
2023-03-23T18:15:28.420Z,71.46
2023-03-23T18:17:57.454Z,71.51
2023-03-23T18:20:23.941Z,72.32
2023-03-23T18:22:50.343Z,72.36
2023-03-23T18:25:16.765Z,73.50
2023-03-23T18:27:43.138Z,72.63
2023-03-23T18:30:10.611Z,72.58
2023-03-23T18:32:37.736Z,71.32
2023-03-23T18:35:07.690Z,69.80
2023-03-23T18:37:34.488Z,70.76
2023-03-23T18:40:01.324Z,72.85
2023-03-23T18:42:27.852Z,73.19
2023-03-23T18:44:54.266Z,70.89
2023-03-23T18:47:20.769Z,71.35
2023-03-23T18:49:47.778Z,73.82
2023-03-23T18:52:15.529Z,74.24
2023-03-23T18:54:41.890Z,73.23
2023-03-23T18:57:08.303Z,73.69
2023-03-23T18:59:34.857Z,73.23
2023-03-23T19:02:01.269Z,73.44
2023-03-23T19:04:27.654Z,72.91
2023-03-23T19:06:54.040Z,71.91
2023-03-23T19:09:21.713Z,72.47
2023-03-23T19:11:48.116Z,72.01
2023-03-23T19:14:14.824Z,72.23
2023-03-23T19:16:41.620Z,72.91
2023-03-23T19:19:08.009Z,72.44
2023-03-23T19:21:34.954Z,71.74
2023-03-23T19:24:02.167Z,71.19
2023-03-23T19:26:33.882Z,72.85
2023-03-23T19:29:25.226Z,73.64
2023-03-23T19:31:49.393Z,72.50
2023-03-23T19:34:16.435Z,72.48
2023-03-23T19:36:43.288Z,71.11
2023-03-23T19:39:14.559Z,72.29
2023-03-23T19:41:42.683Z,72.35
2023-03-23T19:44:10.652Z,71.15
2023-03-23T19:46:37.513Z,71.63
2023-03-23T19:49:04.098Z,72.06
2023-03-23T19:51:30.683Z,70.71
2023-03-23T19:53:57.802Z,72.93
2023-03-23T19:56:24.594Z,75.19
2023-03-23T19:58:53.196Z,72.14
2023-03-23T20:01:19.645Z,71.46
2023-03-23T20:03:46.252Z,71.64
2023-03-23T20:06:13.899Z,73.62
2023-03-23T20:08:43.685Z,72.29
2023-03-23T20:11:12.026Z,72.62
2023-03-23T20:13:39.388Z,73.37
2023-03-23T20:16:09.034Z,73.82
2023-03-23T20:18:37.220Z,72.96
2023-03-23T20:21:06.885Z,74.08
2023-03-23T20:23:34.678Z,73.06
2023-03-23T20:26:04.394Z,73.69
2023-03-23T20:28:30.800Z,72.99
2023-03-23T20:31:17.039Z,72.29
2023-03-23T20:33:48.331Z,74.45
2023-03-23T20:36:28.506Z,73.76
2023-03-23T20:38:55.866Z,73.45
2023-03-23T20:41:22.258Z,74.85
2023-03-23T20:43:48.672Z,75.60
2023-03-23T20:46:15.061Z,76.08
2023-03-23T20:48:41.508Z,76.11
2023-03-23T20:51:10.092Z,74.98
2023-03-23T20:53:37.942Z,76.65
2023-03-23T20:56:06.090Z,75.91
2023-03-23T20:58:33.727Z,76.98
2023-03-23T21:01:01.850Z,76.24
2023-03-23T21:03:30.871Z,75.44
2023-03-23T21:05:58.018Z,75.80
2023-03-23T21:08:25.970Z,74.85
2023-03-23T21:10:52.340Z,75.77
2023-03-23T21:13:18.741Z,75.19
2023-03-23T21:15:45.583Z,75.49
2023-03-23T21:18:12.866Z,76.97
2023-03-23T21:20:39.628Z,76.23
2023-03-23T21:23:06.108Z,76.58
2023-03-23T21:25:35.434Z,76.44
2023-03-23T21:28:02.789Z,75.28
2023-03-23T21:30:30.134Z,75.87
2023-03-23T21:32:56.515Z,76.33
2023-03-23T21:35:23.034Z,74.44
2023-03-23T21:37:49.530Z,73.83
2023-03-23T21:40:17.155Z,73.82
2023-03-23T21:42:45.783Z,73.58
2023-03-23T21:45:14.530Z,73.35
2023-03-23T21:47:40.890Z,74.01
2023-03-23T21:50:11.584Z,72.78
2023-03-23T21:52:38.607Z,72.18
2023-03-23T21:55:05.772Z,70.63
2023-03-23T21:57:32.514Z,71.88
2023-03-23T22:00:00.274Z,71.26
2023-03-23T22:02:26.645Z,70.76
2023-03-23T22:04:54.686Z,70.15
2023-03-23T22:07:21.084Z,70.63
2023-03-23T22:09:47.442Z,69.99
2023-03-23T22:12:13.948Z,70.13
2023-03-23T22:14:40.419Z,69.98
2023-03-23T22:17:08.450Z,70.02
2023-03-23T22:19:35.443Z,69.07
2023-03-23T22:22:02.234Z,68.28
2023-03-23T22:24:28.639Z,70.04
2023-03-23T22:26:55.003Z,69.99
2023-03-23T22:29:21.572Z,70.64
2023-03-23T22:31:47.961Z,70.91
2023-03-23T22:34:15.707Z,70.03
2023-03-23T22:36:42.238Z,70.86
2023-03-23T22:39:09.166Z,70.89
2023-03-23T22:41:37.431Z,71.29
2023-03-23T22:44:04.253Z,70.26
2023-03-23T22:46:31.005Z,70.33
2023-03-23T22:48:57.370Z,71.95
2023-03-23T22:51:25.170Z,71.21
2023-03-23T22:53:51.653Z,71.47
2023-03-23T22:56:18.469Z,70.64
2023-03-23T22:58:45.160Z,69.64
2023-03-23T23:01:14.155Z,69.13
2023-03-23T23:03:40.754Z,68.77
2023-03-23T23:06:09.468Z,68.25
2023-03-23T23:08:37.597Z,68.74
2023-03-23T23:11:04.746Z,67.32
2023-03-23T23:13:33.253Z,67.81
2023-03-23T23:16:01.494Z,68.58
2023-03-23T23:18:28.451Z,67.85
2023-03-23T23:20:56.525Z,67.67
2023-03-23T23:23:24.201Z,67.73
2023-03-23T23:25:51.906Z,66.80
2023-03-23T23:28:19.147Z,65.71
2023-03-23T23:30:46.271Z,67.88
2023-03-23T23:33:13.038Z,68.39
2023-03-23T23:35:40.363Z,68.72
2023-03-23T23:38:08.015Z,67.36
2023-03-23T23:40:34.434Z,69.70
2023-03-23T23:43:03.063Z,68.98
2023-03-23T23:45:29.632Z,69.38
2023-03-23T23:47:56.096Z,69.72
2023-03-23T23:50:23.174Z,68.77
2023-03-23T23:52:49.780Z,67.87
2023-03-23T23:55:17.229Z,66.89
2023-03-23T23:57:44.656Z,66.98
